sensor_id;sensor_type;location;lat;lon;timestamp;P1;durP1;ratioP1;P2;durP2;ratioP2
59314;SDS011;46521;50.160;20.802;2023-09-19T00:03:10;13.45;;;8.33;;
59314;SDS011;46521;50.160;20.802;2023-09-19T00:13:12;13.98;;;9.48;;
59314;SDS011;46521;50.160;20.802;2023-09-19T00:23:14;14.10;;;9.48;;
59314;SDS011;46521;50.160;20.802;2023-09-19T00:33:16;16.65;;;10.45;;
59314;SDS011;46521;50.160;20.802;2023-09-19T00:43:17;16.13;;;10.75;;
59314;SDS011;46521;50.160;20.802;2023-09-19T00:53:20;16.35;;;10.85;;
59314;SDS011;46521;50.160;20.802;2023-09-19T01:03:24;15.15;;;10.38;;
59314;SDS011;46521;50.160;20.802;2023-09-19T01:13:29;15.73;;;11.25;;
59314;SDS011;46521;50.160;20.802;2023-09-19T01:33:55;15.95;;;10.03;;
59314;SDS011;46521;50.160;20.802;2023-09-19T01:44:01;14.80;;;9.55;;
59314;SDS011;46521;50.160;20.802;2023-09-19T01:54:09;13.30;;;9.17;;
59314;SDS011;46521;50.160;20.802;2023-09-19T02:04:13;15.45;;;10.25;;
59314;SDS011;46521;50.160;20.802;2023-09-19T02:14:15;12.53;;;8.48;;
59314;SDS011;46521;50.160;20.802;2023-09-19T02:24:16;11.83;;;8.25;;
59314;SDS011;46521;50.160;20.802;2023-09-19T02:34:18;12.70;;;8.58;;
59314;SDS011;46521;50.160;20.802;2023-09-19T02:44:20;12.95;;;9.68;;
59314;SDS011;46521;50.160;20.802;2023-09-19T02:54:21;14.90;;;9.93;;
59314;SDS011;46521;50.160;20.802;2023-09-19T03:04:24;15.43;;;9.90;;
59314;SDS011;46521;50.160;20.802;2023-09-19T03:14:27;13.40;;;10.48;;
59314;SDS011;46521;50.160;20.802;2023-09-19T03:24:31;13.35;;;10.55;;
59314;SDS011;46521;50.160;20.802;2023-09-19T03:34:34;14.30;;;10.73;;
59314;SDS011;46521;50.160;20.802;2023-09-19T03:44:38;12.03;;;9.23;;
59314;SDS011;46521;50.160;20.802;2023-09-19T03:54:40;12.15;;;9.50;;
59314;SDS011;46521;50.160;20.802;2023-09-19T04:04:42;12.40;;;9.25;;
59314;SDS011;46521;50.160;20.802;2023-09-19T04:14:43;11.95;;;9.30;;
59314;SDS011;46521;50.160;20.802;2023-09-19T04:24:45;13.53;;;9.95;;
59314;SDS011;46521;50.160;20.802;2023-09-19T04:34:46;13.08;;;9.10;;
59314;SDS011;46521;50.160;20.802;2023-09-19T04:44:50;14.03;;;9.50;;
59314;SDS011;46521;50.160;20.802;2023-09-19T04:54:53;13.43;;;9.40;;
59314;SDS011;46521;50.160;20.802;2023-09-19T05:04:55;13.45;;;9.38;;
59314;SDS011;46521;50.160;20.802;2023-09-19T05:25:02;17.03;;;10.57;;
59314;SDS011;46521;50.160;20.802;2023-09-19T05:35:05;12.73;;;9.20;;
59314;SDS011;46521;50.160;20.802;2023-09-19T05:45:10;11.10;;;7.85;;
59314;SDS011;46521;50.160;20.802;2023-09-19T05:55:19;11.73;;;7.73;;
59314;SDS011;46521;50.160;20.802;2023-09-19T06:05:21;10.85;;;8.00;;
59314;SDS011;46521;50.160;20.802;2023-09-19T06:15:24;12.75;;;8.40;;
59314;SDS011;46521;50.160;20.802;2023-09-19T06:25:26;13.90;;;8.63;;
59314;SDS011;46521;50.160;20.802;2023-09-19T06:35:28;14.08;;;8.18;;
59314;SDS011;46521;50.160;20.802;2023-09-19T06:45:33;13.05;;;9.15;;
59314;SDS011;46521;50.160;20.802;2023-09-19T06:55:35;13.03;;;9.20;;
59314;SDS011;46521;50.160;20.802;2023-09-19T07:05:37;11.73;;;8.43;;
59314;SDS011;46521;50.160;20.802;2023-09-19T07:15:40;11.53;;;7.60;;
59314;SDS011;46521;50.160;20.802;2023-09-19T07:25:47;12.85;;;9.00;;
59314;SDS011;46521;50.160;20.802;2023-09-19T07:35:49;12.20;;;9.15;;
59314;SDS011;46521;50.160;20.802;2023-09-19T07:45:51;11.45;;;8.30;;
59314;SDS011;46521;50.160;20.802;2023-09-19T07:55:52;13.33;;;9.30;;
59314;SDS011;46521;50.160;20.802;2023-09-19T08:05:56;14.85;;;11.60;;
59314;SDS011;46521;50.160;20.802;2023-09-19T08:15:58;17.30;;;11.63;;
59314;SDS011;46521;50.160;20.802;2023-09-19T08:26:00;17.18;;;11.93;;
59314;SDS011;46521;50.160;20.802;2023-09-19T08:36:07;15.80;;;12.00;;
59314;SDS011;46521;50.160;20.802;2023-09-19T08:46:10;14.43;;;10.38;;
59314;SDS011;46521;50.160;20.802;2023-09-19T08:56:16;13.90;;;10.20;;
59314;SDS011;46521;50.160;20.802;2023-09-19T09:06:19;13.20;;;9.48;;
59314;SDS011;46521;50.160;20.802;2023-09-19T09:16:22;13.48;;;10.33;;
59314;SDS011;46521;50.160;20.802;2023-09-19T09:26:40;14.78;;;10.25;;
59314;SDS011;46521;50.160;20.802;2023-09-19T09:36:43;12.90;;;10.90;;
59314;SDS011;46521;50.160;20.802;2023-09-19T09:46:50;13.68;;;11.50;;
59314;SDS011;46521;50.160;20.802;2023-09-19T09:56:58;16.23;;;12.67;;
59314;SDS011;46521;50.160;20.802;2023-09-19T10:07:01;17.78;;;13.60;;
59314;SDS011;46521;50.160;20.802;2023-09-19T10:17:08;15.98;;;13.55;;
59314;SDS011;46521;50.160;20.802;2023-09-19T10:27:11;17.60;;;13.58;;
59314;SDS011;46521;50.160;20.802;2023-09-19T10:37:13;15.60;;;12.15;;
59314;SDS011;46521;50.160;20.802;2023-09-19T10:47:17;14.17;;;9.00;;
59314;SDS011;46521;50.160;20.802;2023-09-19T10:57:23;9.38;;;5.55;;
59314;SDS011;46521;50.160;20.802;2023-09-19T11:07:25;10.23;;;6.03;;
59314;SDS011;46521;50.160;20.802;2023-09-19T11:27:38;10.73;;;6.88;;
59314;SDS011;46521;50.160;20.802;2023-09-19T11:38:08;13.75;;;9.15;;
59314;SDS011;46521;50.160;20.802;2023-09-19T11:48:20;14.68;;;10.45;;
59314;SDS011;46521;50.160;20.802;2023-09-19T11:58:28;18.88;;;13.55;;
59314;SDS011;46521;50.160;20.802;2023-09-19T12:08:31;16.50;;;12.38;;
59314;SDS011;46521;50.160;20.802;2023-09-19T12:18:34;14.95;;;10.68;;
59314;SDS011;46521;50.160;20.802;2023-09-19T12:28:37;13.10;;;8.65;;
59314;SDS011;46521;50.160;20.802;2023-09-19T12:38:47;10.53;;;6.43;;
59314;SDS011;46521;50.160;20.802;2023-09-19T12:48:50;11.57;;;6.57;;
59314;SDS011;46521;50.160;20.802;2023-09-19T12:59:28;14.57;;;7.43;;
59314;SDS011;46521;50.160;20.802;2023-09-19T13:09:32;10.10;;;6.60;;
59314;SDS011;46521;50.160;20.802;2023-09-19T13:29:41;11.15;;;7.75;;
59314;SDS011;46521;50.160;20.802;2023-09-19T13:39:42;12.60;;;8.43;;
59314;SDS011;46521;50.160;20.802;2023-09-19T13:49:48;13.10;;;9.23;;
59314;SDS011;46521;50.160;20.802;2023-09-19T13:59:52;12.45;;;8.48;;
59314;SDS011;46521;50.160;20.802;2023-09-19T14:09:57;12.33;;;8.63;;
59314;SDS011;46521;50.160;20.802;2023-09-19T14:19:58;11.90;;;8.10;;
59314;SDS011;46521;50.160;20.802;2023-09-19T14:30:00;11.70;;;8.00;;
59314;SDS011;46521;50.160;20.802;2023-09-19T14:40:01;11.58;;;8.43;;
59314;SDS011;46521;50.160;20.802;2023-09-19T14:50:04;12.90;;;8.85;;
59314;SDS011;46521;50.160;20.802;2023-09-19T15:00:07;12.48;;;9.50;;
59314;SDS011;46521;50.160;20.802;2023-09-19T15:10:13;10.93;;;7.90;;
59314;SDS011;46521;50.160;20.802;2023-09-19T15:20:14;12.07;;;9.67;;
59314;SDS011;46521;50.160;20.802;2023-09-19T15:30:16;13.43;;;9.38;;
59314;SDS011;46521;50.160;20.802;2023-09-19T15:40:17;10.50;;;6.95;;
59314;SDS011;46521;50.160;20.802;2023-09-19T15:50:20;11.58;;;7.80;;
59314;SDS011;46521;50.160;20.802;2023-09-19T16:00:22;11.43;;;8.00;;
59314;SDS011;46521;50.160;20.802;2023-09-19T16:10:23;10.83;;;7.53;;
59314;SDS011;46521;50.160;20.802;2023-09-19T16:20:25;10.53;;;7.57;;
59314;SDS011;46521;50.160;20.802;2023-09-19T16:30:28;12.58;;;8.13;;
59314;SDS011;46521;50.160;20.802;2023-09-19T16:40:35;11.98;;;8.20;;
59314;SDS011;46521;50.160;20.802;2023-09-19T16:50:37;11.05;;;9.15;;
59314;SDS011;46521;50.160;20.802;2023-09-19T17:00:39;11.30;;;9.40;;
59314;SDS011;46521;50.160;20.802;2023-09-19T17:10:40;13.03;;;9.98;;
59314;SDS011;46521;50.160;20.802;2023-09-19T17:20:47;16.05;;;13.60;;
59314;SDS011;46521;50.160;20.802;2023-09-19T17:30:48;16.20;;;12.45;;
59314;SDS011;46521;50.160;20.802;2023-09-19T17:40:51;15.50;;;12.00;;
59314;SDS011;46521;50.160;20.802;2023-09-19T17:51:00;18.88;;;13.30;;
59314;SDS011;46521;50.160;20.802;2023-09-19T18:01:09;19.55;;;14.90;;
59314;SDS011;46521;50.160;20.802;2023-09-19T18:11:18;15.73;;;13.33;;
59314;SDS011;46521;50.160;20.802;2023-09-19T18:21:25;21.35;;;15.93;;
59314;SDS011;46521;50.160;20.802;2023-09-19T18:31:28;18.03;;;14.60;;
59314;SDS011;46521;50.160;20.802;2023-09-19T18:41:29;17.23;;;12.88;;
59314;SDS011;46521;50.160;20.802;2023-09-19T18:51:32;14.70;;;10.18;;
59314;SDS011;46521;50.160;20.802;2023-09-19T19:01:35;15.38;;;10.58;;
59314;SDS011;46521;50.160;20.802;2023-09-19T19:11:36;13.53;;;10.27;;
59314;SDS011;46521;50.160;20.802;2023-09-19T19:21:39;13.68;;;9.90;;
59314;SDS011;46521;50.160;20.802;2023-09-19T19:31:40;12.78;;;10.20;;
59314;SDS011;46521;50.160;20.802;2023-09-19T19:41:42;14.30;;;11.05;;
59314;SDS011;46521;50.160;20.802;2023-09-19T19:51:44;15.85;;;11.80;;
59314;SDS011;46521;50.160;20.802;2023-09-19T20:01:47;12.78;;;9.90;;
59314;SDS011;46521;50.160;20.802;2023-09-19T20:11:49;14.33;;;10.43;;
59314;SDS011;46521;50.160;20.802;2023-09-19T20:21:50;13.63;;;10.90;;
59314;SDS011;46521;50.160;20.802;2023-09-19T20:31:52;16.55;;;11.58;;
59314;SDS011;46521;50.160;20.802;2023-09-19T20:41:55;16.78;;;11.35;;
59314;SDS011;46521;50.160;20.802;2023-09-19T20:51:56;15.88;;;10.55;;
59314;SDS011;46521;50.160;20.802;2023-09-19T21:01:59;14.40;;;11.23;;
59314;SDS011;46521;50.160;20.802;2023-09-19T21:12:01;15.95;;;11.50;;
59314;SDS011;46521;50.160;20.802;2023-09-19T21:22:02;21.35;;;16.15;;
59314;SDS011;46521;50.160;20.802;2023-09-19T21:32:04;18.80;;;16.20;;
59314;SDS011;46521;50.160;20.802;2023-09-19T21:42:06;17.15;;;13.68;;
59314;SDS011;46521;50.160;20.802;2023-09-19T21:52:08;14.30;;;11.40;;
59314;SDS011;46521;50.160;20.802;2023-09-19T22:02:10;16.00;;;12.58;;
59314;SDS011;46521;50.160;20.802;2023-09-19T22:12:12;16.48;;;14.28;;
59314;SDS011;46521;50.160;20.802;2023-09-19T22:22:14;17.33;;;13.25;;
59314;SDS011;46521;50.160;20.802;2023-09-19T22:32:18;15.95;;;12.45;;
59314;SDS011;46521;50.160;20.802;2023-09-19T22:42:19;13.68;;;11.33;;
59314;SDS011;46521;50.160;20.802;2023-09-19T22:52:24;14.03;;;11.23;;
59314;SDS011;46521;50.160;20.802;2023-09-19T23:02:29;18.13;;;14.75;;
59314;SDS011;46521;50.160;20.802;2023-09-19T23:12:31;13.65;;;9.65;;
59314;SDS011;46521;50.160;20.802;2023-09-19T23:22:33;12.13;;;8.53;;
59314;SDS011;46521;50.160;20.802;2023-09-19T23:32:36;11.43;;;7.93;;
59314;SDS011;46521;50.160;20.802;2023-09-19T23:42:38;11.85;;;7.58;;
59314;SDS011;46521;50.160;20.802;2023-09-19T23:52:41;11.80;;;7.63;;
